sensor_id;sensor_type;location;lat;lon;timestamp;P1;durP1;ratioP1;P2;durP2;ratioP2
5752;SDS011;2901;42.140;24.760;2023-05-10T00:00:21;4.47;;;4.07;;
5752;SDS011;2901;42.140;24.760;2023-05-10T00:02:48;4.78;;;4.38;;
5752;SDS011;2901;42.140;24.760;2023-05-10T00:05:14;8.75;;;4.93;;
5752;SDS011;2901;42.140;24.760;2023-05-10T00:07:40;4.15;;;3.85;;
5752;SDS011;2901;42.140;24.760;2023-05-10T00:10:06;6.22;;;4.28;;
5752;SDS011;2901;42.140;24.760;2023-05-10T00:12:32;4.88;;;4.25;;
5752;SDS011;2901;42.140;24.760;2023-05-10T00:14:57;4.95;;;4.15;;
5752;SDS011;2901;42.140;24.760;2023-05-10T00:17:22;5.60;;;4.13;;
5752;SDS011;2901;42.140;24.760;2023-05-10T00:19:48;3.75;;;3.55;;
5752;SDS011;2901;42.140;24.760;2023-05-10T00:22:13;4.10;;;3.85;;
5752;SDS011;2901;42.140;24.760;2023-05-10T00:24:39;4.75;;;4.40;;
5752;SDS011;2901;42.140;24.760;2023-05-10T00:27:04;4.43;;;4.13;;
5752;SDS011;2901;42.140;24.760;2023-05-10T00:29:29;4.50;;;4.10;;
5752;SDS011;2901;42.140;24.760;2023-05-10T00:31:55;5.32;;;4.93;;
5752;SDS011;2901;42.140;24.760;2023-05-10T00:34:21;4.88;;;4.28;;
5752;SDS011;2901;42.140;24.760;2023-05-10T00:36:46;5.07;;;4.60;;
5752;SDS011;2901;42.140;24.760;2023-05-10T00:39:12;5.13;;;4.45;;
5752;SDS011;2901;42.140;24.760;2023-05-10T00:41:37;5.68;;;4.05;;
5752;SDS011;2901;42.140;24.760;2023-05-10T00:44:03;9.25;;;5.93;;
5752;SDS011;2901;42.140;24.760;2023-05-10T00:46:29;11.75;;;4.57;;
5752;SDS011;2901;42.140;24.760;2023-05-10T00:48:54;5.70;;;5.20;;
5752;SDS011;2901;42.140;24.760;2023-05-10T00:51:20;6.30;;;5.75;;
5752;SDS011;2901;42.140;24.760;2023-05-10T00:53:46;5.55;;;4.57;;
5752;SDS011;2901;42.140;24.760;2023-05-10T00:56:14;6.15;;;5.05;;
5752;SDS011;2901;42.140;24.760;2023-05-10T00:58:40;5.40;;;5.10;;
5752;SDS011;2901;42.140;24.760;2023-05-10T01:01:06;9.60;;;4.72;;
5752;SDS011;2901;42.140;24.760;2023-05-10T01:03:33;5.85;;;4.82;;
5752;SDS011;2901;42.140;24.760;2023-05-10T01:05:58;6.00;;;4.85;;
5752;SDS011;2901;42.140;24.760;2023-05-10T01:08:24;5.82;;;5.40;;
5752;SDS011;2901;42.140;24.760;2023-05-10T01:10:50;6.60;;;6.00;;
5752;SDS011;2901;42.140;24.760;2023-05-10T01:13:18;11.07;;;5.70;;
5752;SDS011;2901;42.140;24.760;2023-05-10T01:15:55;7.40;;;6.75;;
5752;SDS011;2901;42.140;24.760;2023-05-10T01:18:21;6.70;;;6.30;;
5752;SDS011;2901;42.140;24.760;2023-05-10T01:20:47;7.38;;;6.25;;
5752;SDS011;2901;42.140;24.760;2023-05-10T01:37:35;8.40;;;7.07;;
5752;SDS011;2901;42.140;24.760;2023-05-10T01:40:19;7.47;;;6.78;;
5752;SDS011;2901;42.140;24.760;2023-05-10T01:42:56;8.55;;;7.38;;
5752;SDS011;2901;42.140;24.760;2023-05-10T01:48:08;9.32;;;7.25;;
5752;SDS011;2901;42.140;24.760;2023-05-10T01:50:36;8.90;;;8.20;;
5752;SDS011;2901;42.140;24.760;2023-05-10T01:53:06;8.23;;;7.57;;
5752;SDS011;2901;42.140;24.760;2023-05-10T01:55:34;11.10;;;8.50;;
5752;SDS011;2901;42.140;24.760;2023-05-10T01:58:09;9.98;;;7.93;;
5752;SDS011;2901;42.140;24.760;2023-05-10T02:00:40;10.25;;;7.50;;
5752;SDS011;2901;42.140;24.760;2023-05-10T02:03:08;12.23;;;7.82;;
5752;SDS011;2901;42.140;24.760;2023-05-10T02:05:35;8.70;;;7.85;;
5752;SDS011;2901;42.140;24.760;2023-05-10T02:08:03;12.00;;;8.15;;
5752;SDS011;2901;42.140;24.760;2023-05-10T02:10:32;8.60;;;8.02;;
5752;SDS011;2901;42.140;24.760;2023-05-10T02:12:59;10.02;;;8.23;;
5752;SDS011;2901;42.140;24.760;2023-05-10T02:15:26;8.27;;;7.57;;
5752;SDS011;2901;42.140;24.760;2023-05-10T02:17:54;8.43;;;7.80;;
5752;SDS011;2901;42.140;24.760;2023-05-10T02:20:21;8.48;;;7.63;;
5752;SDS011;2901;42.140;24.760;2023-05-10T02:22:49;8.07;;;7.38;;
5752;SDS011;2901;42.140;24.760;2023-05-10T02:25:17;11.98;;;7.78;;
5752;SDS011;2901;42.140;24.760;2023-05-10T02:27:44;8.90;;;7.32;;
5752;SDS011;2901;42.140;24.760;2023-05-10T02:30:11;7.28;;;6.75;;
5752;SDS011;2901;42.140;24.760;2023-05-10T02:32:37;8.07;;;7.38;;
5752;SDS011;2901;42.140;24.760;2023-05-10T02:35:04;8.00;;;7.50;;
5752;SDS011;2901;42.140;24.760;2023-05-10T02:37:31;7.63;;;6.85;;
5752;SDS011;2901;42.140;24.760;2023-05-10T02:39:57;8.40;;;7.70;;
5752;SDS011;2901;42.140;24.760;2023-05-10T02:42:25;10.95;;;6.95;;
5752;SDS011;2901;42.140;24.760;2023-05-10T02:44:53;8.57;;;7.15;;
5752;SDS011;2901;42.140;24.760;2023-05-10T02:47:21;8.48;;;7.53;;
5752;SDS011;2901;42.140;24.760;2023-05-10T02:49:47;8.20;;;7.32;;
5752;SDS011;2901;42.140;24.760;2023-05-10T02:52:14;7.63;;;7.03;;
5752;SDS011;2901;42.140;24.760;2023-05-10T02:54:44;9.85;;;7.10;;
5752;SDS011;2901;42.140;24.760;2023-05-10T02:57:16;8.13;;;7.13;;
5752;SDS011;2901;42.140;24.760;2023-05-10T02:59:46;7.70;;;7.07;;
5752;SDS011;2901;42.140;24.760;2023-05-10T03:02:14;9.48;;;7.25;;
5752;SDS011;2901;42.140;24.760;2023-05-10T03:04:40;8.65;;;7.72;;
5752;SDS011;2901;42.140;24.760;2023-05-10T03:07:05;10.77;;;7.30;;
5752;SDS011;2901;42.140;24.760;2023-05-10T03:09:32;10.43;;;7.13;;
5752;SDS011;2901;42.140;24.760;2023-05-10T03:17:23;11.45;;;7.07;;
5752;SDS011;2901;42.140;24.760;2023-05-10T03:19:58;7.70;;;7.10;;
5752;SDS011;2901;42.140;24.760;2023-05-10T03:22:32;7.30;;;6.82;;
5752;SDS011;2901;42.140;24.760;2023-05-10T03:25:01;7.65;;;6.88;;
5752;SDS011;2901;42.140;24.760;2023-05-10T03:27:31;7.97;;;7.28;;
5752;SDS011;2901;42.140;24.760;2023-05-10T03:29:57;7.25;;;6.70;;
5752;SDS011;2901;42.140;24.760;2023-05-10T03:32:23;7.50;;;6.20;;
5752;SDS011;2901;42.140;24.760;2023-05-10T03:34:48;8.82;;;7.03;;
5752;SDS011;2901;42.140;24.760;2023-05-10T03:37:14;7.30;;;6.65;;
5752;SDS011;2901;42.140;24.760;2023-05-10T03:39:39;10.10;;;7.38;;
5752;SDS011;2901;42.140;24.760;2023-05-10T03:42:04;11.43;;;6.60;;
5752;SDS011;2901;42.140;24.760;2023-05-10T03:44:30;7.28;;;6.63;;
5752;SDS011;2901;42.140;24.760;2023-05-10T03:46:58;8.10;;;7.32;;
5752;SDS011;2901;42.140;24.760;2023-05-10T03:49:23;7.70;;;7.07;;
5752;SDS011;2901;42.140;24.760;2023-05-10T03:51:48;14.63;;;6.88;;
5752;SDS011;2901;42.140;24.760;2023-05-10T03:54:14;11.05;;;6.53;;
5752;SDS011;2901;42.140;24.760;2023-05-10T03:56:39;9.88;;;7.88;;
5752;SDS011;2901;42.140;24.760;2023-05-10T03:59:05;8.65;;;7.95;;
5752;SDS011;2901;42.140;24.760;2023-05-10T04:01:32;14.65;;;7.35;;
5752;SDS011;2901;42.140;24.760;2023-05-10T04:03:58;14.70;;;7.47;;
5752;SDS011;2901;42.140;24.760;2023-05-10T04:06:24;6.53;;;5.80;;
5752;SDS011;2901;42.140;24.760;2023-05-10T04:08:49;13.13;;;6.55;;
5752;SDS011;2901;42.140;24.760;2023-05-10T04:11:14;8.65;;;6.07;;
5752;SDS011;2901;42.140;24.760;2023-05-10T04:13:40;8.07;;;6.63;;
5752;SDS011;2901;42.140;24.760;2023-05-10T04:16:06;7.25;;;6.85;;
5752;SDS011;2901;42.140;24.760;2023-05-10T04:18:31;10.88;;;6.75;;
5752;SDS011;2901;42.140;24.760;2023-05-10T04:20:57;7.70;;;7.00;;
5752;SDS011;2901;42.140;24.760;2023-05-10T04:23:22;7.38;;;6.38;;
5752;SDS011;2901;42.140;24.760;2023-05-10T04:25:48;10.35;;;7.57;;
5752;SDS011;2901;42.140;24.760;2023-05-10T04:28:13;7.55;;;6.95;;
5752;SDS011;2901;42.140;24.760;2023-05-10T04:30:39;6.93;;;6.22;;
5752;SDS011;2901;42.140;24.760;2023-05-10T04:33:05;10.70;;;6.35;;
5752;SDS011;2901;42.140;24.760;2023-05-10T04:35:30;8.63;;;6.65;;
5752;SDS011;2901;42.140;24.760;2023-05-10T04:37:56;8.23;;;6.30;;
5752;SDS011;2901;42.140;24.760;2023-05-10T04:40:21;8.63;;;7.00;;
5752;SDS011;2901;42.140;24.760;2023-05-10T04:42:46;13.95;;;7.38;;
5752;SDS011;2901;42.140;24.760;2023-05-10T04:45:12;8.27;;;7.43;;
5752;SDS011;2901;42.140;24.760;2023-05-10T04:47:39;7.05;;;6.22;;
5752;SDS011;2901;42.140;24.760;2023-05-10T04:50:05;14.15;;;7.00;;
5752;SDS011;2901;42.140;24.760;2023-05-10T04:52:31;7.47;;;6.57;;
5752;SDS011;2901;42.140;24.760;2023-05-10T04:54:56;6.15;;;5.55;;
5752;SDS011;2901;42.140;24.760;2023-05-10T04:57:22;6.97;;;6.00;;
5752;SDS011;2901;42.140;24.760;2023-05-10T04:59:47;6.75;;;6.13;;
5752;SDS011;2901;42.140;24.760;2023-05-10T05:02:13;8.50;;;6.32;;
5752;SDS011;2901;42.140;24.760;2023-05-10T05:04:38;11.50;;;6.43;;
5752;SDS011;2901;42.140;24.760;2023-05-10T05:07:03;6.95;;;6.10;;
5752;SDS011;2901;42.140;24.760;2023-05-10T05:09:29;6.35;;;5.88;;
5752;SDS011;2901;42.140;24.760;2023-05-10T05:11:54;6.63;;;6.00;;
5752;SDS011;2901;42.140;24.760;2023-05-10T05:14:20;9.15;;;5.05;;
5752;SDS011;2901;42.140;24.760;2023-05-10T05:16:50;6.53;;;5.45;;
5752;SDS011;2901;42.140;24.760;2023-05-10T05:19:18;9.60;;;6.38;;
5752;SDS011;2901;42.140;24.760;2023-05-10T05:21:43;8.02;;;5.47;;
5752;SDS011;2901;42.140;24.760;2023-05-10T05:24:09;9.82;;;5.90;;
5752;SDS011;2901;42.140;24.760;2023-05-10T05:26:35;5.63;;;5.20;;
5752;SDS011;2901;42.140;24.760;2023-05-10T05:29:00;6.65;;;5.25;;
5752;SDS011;2901;42.140;24.760;2023-05-10T05:31:26;10.98;;;5.55;;
5752;SDS011;2901;42.140;24.760;2023-05-10T05:33:51;4.88;;;4.47;;
5752;SDS011;2901;42.140;24.760;2023-05-10T05:36:17;6.95;;;5.05;;
5752;SDS011;2901;42.140;24.760;2023-05-10T05:38:42;9.90;;;4.60;;
5752;SDS011;2901;42.140;24.760;2023-05-10T05:41:08;7.22;;;4.85;;
5752;SDS011;2901;42.140;24.760;2023-05-10T05:43:33;13.73;;;6.07;;
5752;SDS011;2901;42.140;24.760;2023-05-10T05:45:58;6.57;;;5.07;;
5752;SDS011;2901;42.140;24.760;2023-05-10T05:48:24;6.10;;;5.43;;
5752;SDS011;2901;42.140;24.760;2023-05-10T05:50:49;4.45;;;4.05;;
5752;SDS011;2901;42.140;24.760;2023-05-10T05:53:15;14.27;;;5.88;;
5752;SDS011;2901;42.140;24.760;2023-05-10T05:55:40;5.38;;;4.97;;
5752;SDS011;2901;42.140;24.760;2023-05-10T05:58:16;10.77;;;5.07;;
5752;SDS011;2901;42.140;24.760;2023-05-10T06:00:41;9.20;;;4.68;;
5752;SDS011;2901;42.140;24.760;2023-05-10T06:03:06;6.72;;;5.55;;
5752;SDS011;2901;42.140;24.760;2023-05-10T06:05:32;8.63;;;5.03;;
5752;SDS011;2901;42.140;24.760;2023-05-10T06:07:59;12.60;;;5.65;;
5752;SDS011;2901;42.140;24.760;2023-05-10T06:10:25;10.85;;;6.05;;
5752;SDS011;2901;42.140;24.760;2023-05-10T06:12:50;5.78;;;5.22;;
5752;SDS011;2901;42.140;24.760;2023-05-10T06:15:15;6.00;;;5.28;;
5752;SDS011;2901;42.140;24.760;2023-05-10T06:17:41;5.88;;;5.25;;
5752;SDS011;2901;42.140;24.760;2023-05-10T06:20:08;10.43;;;5.85;;
5752;SDS011;2901;42.140;24.760;2023-05-10T06:22:34;8.40;;;5.32;;
5752;SDS011;2901;42.140;24.760;2023-05-10T06:24:59;6.00;;;5.40;;
5752;SDS011;2901;42.140;24.760;2023-05-10T06:27:24;9.57;;;5.20;;
5752;SDS011;2901;42.140;24.760;2023-05-10T06:29:50;5.30;;;4.43;;
5752;SDS011;2901;42.140;24.760;2023-05-10T06:32:15;5.25;;;4.85;;
5752;SDS011;2901;42.140;24.760;2023-05-10T06:34:41;11.88;;;3.83;;
5752;SDS011;2901;42.140;24.760;2023-05-10T06:37:08;8.38;;;4.05;;
5752;SDS011;2901;42.140;24.760;2023-05-10T06:39:33;6.93;;;3.90;;
5752;SDS011;2901;42.140;24.760;2023-05-10T06:41:59;9.48;;;4.70;;
5752;SDS011;2901;42.140;24.760;2023-05-10T06:44:24;4.38;;;4.07;;
5752;SDS011;2901;42.140;24.760;2023-05-10T06:46:50;7.63;;;4.28;;
5752;SDS011;2901;42.140;24.760;2023-05-10T06:49:16;4.65;;;4.35;;
5752;SDS011;2901;42.140;24.760;2023-05-10T06:51:41;4.38;;;4.07;;
5752;SDS011;2901;42.140;24.760;2023-05-10T06:54:06;4.85;;;4.43;;
5752;SDS011;2901;42.140;24.760;2023-05-10T06:56:32;11.52;;;5.18;;
5752;SDS011;2901;42.140;24.760;2023-05-10T06:58:57;12.35;;;4.82;;
5752;SDS011;2901;42.140;24.760;2023-05-10T07:01:23;6.00;;;4.30;;
5752;SDS011;2901;42.140;24.760;2023-05-10T07:03:48;5.03;;;4.45;;
5752;SDS011;2901;42.140;24.760;2023-05-10T07:06:13;4.60;;;4.35;;
5752;SDS011;2901;42.140;24.760;2023-05-10T07:08:39;6.40;;;4.32;;
5752;SDS011;2901;42.140;24.760;2023-05-10T07:11:04;6.57;;;4.68;;
5752;SDS011;2901;42.140;24.760;2023-05-10T07:13:32;7.28;;;3.88;;
5752;SDS011;2901;42.140;24.760;2023-05-10T07:15:59;6.13;;;4.13;;
5752;SDS011;2901;42.140;24.760;2023-05-10T07:18:25;4.70;;;4.30;;
5752;SDS011;2901;42.140;24.760;2023-05-10T07:20:51;8.07;;;3.92;;
5752;SDS011;2901;42.140;24.760;2023-05-10T07:23:16;5.05;;;4.20;;
5752;SDS011;2901;42.140;24.760;2023-05-10T07:25:46;4.25;;;3.88;;
5752;SDS011;2901;42.140;24.760;2023-05-10T07:28:13;4.70;;;4.15;;
5752;SDS011;2901;42.140;24.760;2023-05-10T07:30:39;4.38;;;4.05;;
5752;SDS011;2901;42.140;24.760;2023-05-10T07:33:05;5.88;;;4.30;;
5752;SDS011;2901;42.140;24.760;2023-05-10T07:35:30;5.55;;;3.85;;
5752;SDS011;2901;42.140;24.760;2023-05-10T07:37:56;4.35;;;3.67;;
5752;SDS011;2901;42.140;24.760;2023-05-10T07:40:21;8.55;;;4.53;;
5752;SDS011;2901;42.140;24.760;2023-05-10T07:42:46;9.20;;;4.35;;
5752;SDS011;2901;42.140;24.760;2023-05-10T07:45:12;4.68;;;4.28;;
5752;SDS011;2901;42.140;24.760;2023-05-10T07:47:37;4.03;;;3.72;;
5752;SDS011;2901;42.140;24.760;2023-05-10T07:50:03;9.90;;;4.93;;
5752;SDS011;2901;42.140;24.760;2023-05-10T07:52:29;5.25;;;3.25;;
5752;SDS011;2901;42.140;24.760;2023-05-10T07:54:54;4.22;;;3.90;;
5752;SDS011;2901;42.140;24.760;2023-05-10T07:57:21;4.10;;;3.80;;
5752;SDS011;2901;42.140;24.760;2023-05-10T07:59:47;5.40;;;3.83;;
5752;SDS011;2901;42.140;24.760;2023-05-10T08:02:12;3.78;;;3.58;;
5752;SDS011;2901;42.140;24.760;2023-05-10T08:04:38;6.63;;;3.28;;
5752;SDS011;2901;42.140;24.760;2023-05-10T08:07:03;4.93;;;3.90;;
5752;SDS011;2901;42.140;24.760;2023-05-10T08:09:28;5.82;;;3.60;;
5752;SDS011;2901;42.140;24.760;2023-05-10T08:11:54;6.47;;;3.17;;
5752;SDS011;2901;42.140;24.760;2023-05-10T08:14:19;3.80;;;3.03;;
5752;SDS011;2901;42.140;24.760;2023-05-10T08:16:46;3.47;;;3.17;;
5752;SDS011;2901;42.140;24.760;2023-05-10T08:19:12;5.15;;;3.33;;
5752;SDS011;2901;42.140;24.760;2023-05-10T08:21:37;3.72;;;3.33;;
5752;SDS011;2901;42.140;24.760;2023-05-10T08:24:03;4.68;;;3.50;;
5752;SDS011;2901;42.140;24.760;2023-05-10T08:26:29;3.92;;;3.72;;
5752;SDS011;2901;42.140;24.760;2023-05-10T08:28:55;4.05;;;3.67;;
5752;SDS011;2901;42.140;24.760;2023-05-10T08:31:21;4.50;;;4.20;;
5752;SDS011;2901;42.140;24.760;2023-05-10T08:33:46;9.13;;;3.60;;
5752;SDS011;2901;42.140;24.760;2023-05-10T08:36:11;3.60;;;3.40;;
5752;SDS011;2901;42.140;24.760;2023-05-10T08:38:39;3.53;;;3.33;;
5752;SDS011;2901;42.140;24.760;2023-05-10T08:41:04;4.97;;;3.20;;
5752;SDS011;2901;42.140;24.760;2023-05-10T08:43:30;3.20;;;2.90;;
5752;SDS011;2901;42.140;24.760;2023-05-10T08:45:56;5.53;;;3.05;;
5752;SDS011;2901;42.140;24.760;2023-05-10T08:48:26;5.47;;;3.50;;
5752;SDS011;2901;42.140;24.760;2023-05-10T08:50:54;3.80;;;3.50;;
5752;SDS011;2901;42.140;24.760;2023-05-10T08:53:23;5.40;;;3.13;;
5752;SDS011;2901;42.140;24.760;2023-05-10T08:55:51;3.50;;;2.92;;
5752;SDS011;2901;42.140;24.760;2023-05-10T08:58:17;4.90;;;3.72;;
5752;SDS011;2901;42.140;24.760;2023-05-10T09:00:44;7.80;;;3.35;;
5752;SDS011;2901;42.140;24.760;2023-05-10T09:03:10;6.15;;;3.65;;
5752;SDS011;2901;42.140;24.760;2023-05-10T09:05:36;3.85;;;3.65;;
5752;SDS011;2901;42.140;24.760;2023-05-10T09:08:02;3.63;;;3.42;;
5752;SDS011;2901;42.140;24.760;2023-05-10T09:10:28;6.90;;;4.65;;
5752;SDS011;2901;42.140;24.760;2023-05-10T09:12:58;3.80;;;3.50;;
5752;SDS011;2901;42.140;24.760;2023-05-10T09:15:24;5.63;;;3.88;;
5752;SDS011;2901;42.140;24.760;2023-05-10T09:17:50;3.97;;;3.67;;
5752;SDS011;2901;42.140;24.760;2023-05-10T09:20:15;7.10;;;3.55;;
5752;SDS011;2901;42.140;24.760;2023-05-10T09:22:42;3.85;;;3.03;;
5752;SDS011;2901;42.140;24.760;2023-05-10T09:27:36;4.35;;;4.05;;
5752;SDS011;2901;42.140;24.760;2023-05-10T09:30:02;3.05;;;2.80;;
5752;SDS011;2901;42.140;24.760;2023-05-10T09:35:12;3.40;;;3.20;;
5752;SDS011;2901;42.140;24.760;2023-05-10T09:37:39;11.30;;;3.50;;
5752;SDS011;2901;42.140;24.760;2023-05-10T09:40:15;5.65;;;3.95;;
5752;SDS011;2901;42.140;24.760;2023-05-10T09:42:42;4.43;;;3.72;;
5752;SDS011;2901;42.140;24.760;2023-05-10T09:45:15;7.28;;;3.63;;
5752;SDS011;2901;42.140;24.760;2023-05-10T09:47:41;6.10;;;3.78;;
5752;SDS011;2901;42.140;24.760;2023-05-10T09:50:06;3.45;;;3.25;;
5752;SDS011;2901;42.140;24.760;2023-05-10T09:55:13;3.38;;;2.80;;
5752;SDS011;2901;42.140;24.760;2023-05-10T09:57:39;4.35;;;3.17;;
5752;SDS011;2901;42.140;24.760;2023-05-10T10:00:05;3.58;;;2.60;;
5752;SDS011;2901;42.140;24.760;2023-05-10T10:02:31;3.30;;;3.10;;
5752;SDS011;2901;42.140;24.760;2023-05-10T10:04:57;3.50;;;3.10;;
5752;SDS011;2901;42.140;24.760;2023-05-10T10:07:24;6.45;;;3.05;;
5752;SDS011;2901;42.140;24.760;2023-05-10T10:09:51;3.28;;;2.85;;
5752;SDS011;2901;42.140;24.760;2023-05-10T10:12:18;3.95;;;2.78;;
5752;SDS011;2901;42.140;24.760;2023-05-10T10:14:44;3.55;;;2.92;;
5752;SDS011;2901;42.140;24.760;2023-05-10T10:17:11;7.35;;;3.55;;
5752;SDS011;2901;42.140;24.760;2023-05-10T10:19:37;3.33;;;3.03;;
5752;SDS011;2901;42.140;24.760;2023-05-10T10:22:03;5.10;;;3.42;;
5752;SDS011;2901;42.140;24.760;2023-05-10T10:24:28;5.57;;;3.05;;
5752;SDS011;2901;42.140;24.760;2023-05-10T10:26:55;3.33;;;3.03;;
5752;SDS011;2901;42.140;24.760;2023-05-10T10:29:36;5.00;;;3.30;;
5752;SDS011;2901;42.140;24.760;2023-05-10T10:32:21;3.17;;;3.08;;
5752;SDS011;2901;42.140;24.760;2023-05-10T10:34:51;6.57;;;3.85;;
5752;SDS011;2901;42.140;24.760;2023-05-10T10:37:17;3.45;;;3.13;;
5752;SDS011;2901;42.140;24.760;2023-05-10T10:39:42;4.88;;;3.33;;
5752;SDS011;2901;42.140;24.760;2023-05-10T10:42:08;5.20;;;2.95;;
5752;SDS011;2901;42.140;24.760;2023-05-10T10:49:49;7.80;;;3.22;;
5752;SDS011;2901;42.140;24.760;2023-05-10T10:57:24;3.47;;;3.28;;
5752;SDS011;2901;42.140;24.760;2023-05-10T10:59:51;5.03;;;4.05;;
5752;SDS011;2901;42.140;24.760;2023-05-10T11:02:44;4.32;;;3.92;;
5752;SDS011;2901;42.140;24.760;2023-05-10T11:07:59;6.85;;;4.07;;
5752;SDS011;2901;42.140;24.760;2023-05-10T11:10:26;3.60;;;3.50;;
5752;SDS011;2901;42.140;24.760;2023-05-10T11:13:10;4.75;;;3.08;;
5752;SDS011;2901;42.140;24.760;2023-05-10T11:15:36;3.95;;;3.55;;
5752;SDS011;2901;42.140;24.760;2023-05-10T11:18:19;3.95;;;3.65;;
5752;SDS011;2901;42.140;24.760;2023-05-10T11:20:51;3.40;;;3.10;;
5752;SDS011;2901;42.140;24.760;2023-05-10T11:26:08;5.05;;;3.45;;
5752;SDS011;2901;42.140;24.760;2023-05-10T11:28:34;3.78;;;3.58;;
5752;SDS011;2901;42.140;24.760;2023-05-10T11:31:06;7.68;;;3.42;;
5752;SDS011;2901;42.140;24.760;2023-05-10T11:33:31;6.55;;;3.35;;
5752;SDS011;2901;42.140;24.760;2023-05-10T11:38:59;2.92;;;2.70;;
5752;SDS011;2901;42.140;24.760;2023-05-10T11:41:25;3.15;;;2.25;;
5752;SDS011;2901;42.140;24.760;2023-05-10T11:43:52;3.67;;;2.85;;
5752;SDS011;2901;42.140;24.760;2023-05-10T11:46:19;3.53;;;3.08;;
5752;SDS011;2901;42.140;24.760;2023-05-10T11:48:45;6.57;;;3.42;;
5752;SDS011;2901;42.140;24.760;2023-05-10T11:51:12;2.55;;;2.35;;
5752;SDS011;2901;42.140;24.760;2023-05-10T11:53:37;4.82;;;3.55;;
5752;SDS011;2901;42.140;24.760;2023-05-10T11:56:06;3.22;;;3.03;;
5752;SDS011;2901;42.140;24.760;2023-05-10T11:58:33;2.85;;;2.75;;
5752;SDS011;2901;42.140;24.760;2023-05-10T12:01:00;4.60;;;3.53;;
5752;SDS011;2901;42.140;24.760;2023-05-10T12:03:26;3.45;;;3.15;;
5752;SDS011;2901;42.140;24.760;2023-05-10T12:05:52;4.43;;;4.13;;
5752;SDS011;2901;42.140;24.760;2023-05-10T12:08:24;4.07;;;3.70;;
5752;SDS011;2901;42.140;24.760;2023-05-10T12:10:51;8.00;;;3.63;;
5752;SDS011;2901;42.140;24.760;2023-05-10T12:13:17;4.03;;;3.60;;
5752;SDS011;2901;42.140;24.760;2023-05-10T12:15:44;4.65;;;4.35;;
5752;SDS011;2901;42.140;24.760;2023-05-10T12:18:10;5.72;;;4.03;;
5752;SDS011;2901;42.140;24.760;2023-05-10T12:20:36;3.40;;;3.17;;
5752;SDS011;2901;42.140;24.760;2023-05-10T12:23:02;3.90;;;3.50;;
5752;SDS011;2901;42.140;24.760;2023-05-10T12:25:35;3.67;;;3.35;;
5752;SDS011;2901;42.140;24.760;2023-05-10T12:28:05;4.10;;;3.83;;
5752;SDS011;2901;42.140;24.760;2023-05-10T12:30:33;7.35;;;6.60;;
5752;SDS011;2901;42.140;24.760;2023-05-10T12:33:12;4.95;;;4.55;;
5752;SDS011;2901;42.140;24.760;2023-05-10T12:35:43;3.88;;;3.63;;
5752;SDS011;2901;42.140;24.760;2023-05-10T12:38:25;4.05;;;3.85;;
5752;SDS011;2901;42.140;24.760;2023-05-10T12:40:59;4.63;;;4.32;;
5752;SDS011;2901;42.140;24.760;2023-05-10T12:43:25;4.38;;;4.18;;
5752;SDS011;2901;42.140;24.760;2023-05-10T12:45:51;4.45;;;4.00;;
5752;SDS011;2901;42.140;24.760;2023-05-10T12:48:16;6.00;;;4.03;;
5752;SDS011;2901;42.140;24.760;2023-05-10T12:50:42;7.00;;;6.60;;
5752;SDS011;2901;42.140;24.760;2023-05-10T12:53:07;10.75;;;8.65;;
5752;SDS011;2901;42.140;24.760;2023-05-10T12:55:33;5.03;;;4.60;;
5752;SDS011;2901;42.140;24.760;2023-05-10T12:57:58;5.35;;;4.95;;
5752;SDS011;2901;42.140;24.760;2023-05-10T13:00:24;16.42;;;11.13;;
5752;SDS011;2901;42.140;24.760;2023-05-10T13:02:49;6.82;;;5.13;;
5752;SDS011;2901;42.140;24.760;2023-05-10T13:05:15;5.15;;;4.78;;
5752;SDS011;2901;42.140;24.760;2023-05-10T13:07:40;5.90;;;5.60;;
5752;SDS011;2901;42.140;24.760;2023-05-10T13:10:07;13.50;;;10.25;;
5752;SDS011;2901;42.140;24.760;2023-05-10T13:12:32;14.60;;;8.07;;
5752;SDS011;2901;42.140;24.760;2023-05-10T13:14:57;6.15;;;5.75;;
5752;SDS011;2901;42.140;24.760;2023-05-10T13:17:24;12.18;;;8.13;;
5752;SDS011;2901;42.140;24.760;2023-05-10T13:19:50;5.47;;;4.97;;
5752;SDS011;2901;42.140;24.760;2023-05-10T13:22:16;4.93;;;4.60;;
5752;SDS011;2901;42.140;24.760;2023-05-10T13:24:41;4.72;;;4.53;;
5752;SDS011;2901;42.140;24.760;2023-05-10T13:27:06;5.95;;;3.78;;
5752;SDS011;2901;42.140;24.760;2023-05-10T13:29:32;4.07;;;3.88;;
5752;SDS011;2901;42.140;24.760;2023-05-10T13:31:58;4.20;;;3.90;;
5752;SDS011;2901;42.140;24.760;2023-05-10T13:34:23;4.72;;;4.43;;
5752;SDS011;2901;42.140;24.760;2023-05-10T13:36:49;5.38;;;4.07;;
5752;SDS011;2901;42.140;24.760;2023-05-10T13:39:14;6.38;;;5.05;;
5752;SDS011;2901;42.140;24.760;2023-05-10T13:41:40;5.25;;;4.85;;
5752;SDS011;2901;42.140;24.760;2023-05-10T13:44:06;7.18;;;6.03;;
5752;SDS011;2901;42.140;24.760;2023-05-10T13:46:31;7.07;;;5.40;;
5752;SDS011;2901;42.140;24.760;2023-05-10T13:48:58;6.25;;;5.78;;
5752;SDS011;2901;42.140;24.760;2023-05-10T13:51:23;11.07;;;6.32;;
5752;SDS011;2901;42.140;24.760;2023-05-10T13:53:48;6.20;;;5.88;;
5752;SDS011;2901;42.140;24.760;2023-05-10T13:59:01;6.68;;;6.38;;
5752;SDS011;2901;42.140;24.760;2023-05-10T14:01:27;6.35;;;5.97;;
5752;SDS011;2901;42.140;24.760;2023-05-10T14:03:52;6.57;;;6.10;;
5752;SDS011;2901;42.140;24.760;2023-05-10T14:06:17;9.02;;;7.65;;
5752;SDS011;2901;42.140;24.760;2023-05-10T14:08:43;12.27;;;6.72;;
5752;SDS011;2901;42.140;24.760;2023-05-10T14:11:08;5.78;;;5.03;;
5752;SDS011;2901;42.140;24.760;2023-05-10T14:13:34;4.80;;;4.40;;
5752;SDS011;2901;42.140;24.760;2023-05-10T14:15:59;6.43;;;5.00;;
5752;SDS011;2901;42.140;24.760;2023-05-10T14:18:26;7.25;;;5.15;;
5752;SDS011;2901;42.140;24.760;2023-05-10T14:20:51;6.82;;;6.10;;
5752;SDS011;2901;42.140;24.760;2023-05-10T14:23:17;5.80;;;5.40;;
5752;SDS011;2901;42.140;24.760;2023-05-10T14:25:44;7.25;;;6.65;;
5752;SDS011;2901;42.140;24.760;2023-05-10T14:28:10;5.28;;;5.00;;
5752;SDS011;2901;42.140;24.760;2023-05-10T14:30:36;6.35;;;5.95;;
5752;SDS011;2901;42.140;24.760;2023-05-10T14:33:02;5.47;;;5.13;;
5752;SDS011;2901;42.140;24.760;2023-05-10T14:35:28;5.80;;;5.38;;
5752;SDS011;2901;42.140;24.760;2023-05-10T14:37:55;6.70;;;4.82;;
5752;SDS011;2901;42.140;24.760;2023-05-10T14:40:21;5.03;;;4.80;;
5752;SDS011;2901;42.140;24.760;2023-05-10T14:42:46;4.90;;;4.60;;
5752;SDS011;2901;42.140;24.760;2023-05-10T14:45:12;4.70;;;4.35;;
5752;SDS011;2901;42.140;24.760;2023-05-10T14:47:37;4.32;;;4.03;;
5752;SDS011;2901;42.140;24.760;2023-05-10T14:50:03;3.83;;;3.58;;
5752;SDS011;2901;42.140;24.760;2023-05-10T14:55:50;4.38;;;4.07;;
5752;SDS011;2901;42.140;24.760;2023-05-10T14:58:16;7.30;;;3.83;;
5752;SDS011;2901;42.140;24.760;2023-05-10T15:00:41;5.00;;;4.60;;
5752;SDS011;2901;42.140;24.760;2023-05-10T15:03:07;4.88;;;4.53;;
5752;SDS011;2901;42.140;24.760;2023-05-10T15:05:32;6.28;;;3.47;;
5752;SDS011;2901;42.140;24.760;2023-05-10T15:07:58;4.32;;;4.05;;
5752;SDS011;2901;42.140;24.760;2023-05-10T15:10:23;4.00;;;3.80;;
5752;SDS011;2901;42.140;24.760;2023-05-10T15:12:49;5.43;;;3.90;;
5752;SDS011;2901;42.140;24.760;2023-05-10T15:15:15;4.13;;;3.75;;
5752;SDS011;2901;42.140;24.760;2023-05-10T15:17:40;4.07;;;3.78;;
5752;SDS011;2901;42.140;24.760;2023-05-10T15:20:06;4.18;;;3.97;;
5752;SDS011;2901;42.140;24.760;2023-05-10T15:22:32;10.27;;;4.45;;
5752;SDS011;2901;42.140;24.760;2023-05-10T15:24:58;5.25;;;4.95;;
5752;SDS011;2901;42.140;24.760;2023-05-10T15:27:24;4.35;;;4.03;;
5752;SDS011;2901;42.140;24.760;2023-05-10T15:29:50;4.72;;;4.43;;
5752;SDS011;2901;42.140;24.760;2023-05-10T15:32:15;4.82;;;4.40;;
5752;SDS011;2901;42.140;24.760;2023-05-10T15:34:41;3.75;;;3.55;;
5752;SDS011;2901;42.140;24.760;2023-05-10T15:37:06;4.88;;;4.35;;
5752;SDS011;2901;42.140;24.760;2023-05-10T15:39:32;5.68;;;4.07;;
5752;SDS011;2901;42.140;24.760;2023-05-10T15:41:57;4.22;;;3.95;;
5752;SDS011;2901;42.140;24.760;2023-05-10T15:44:22;4.72;;;4.03;;
5752;SDS011;2901;42.140;24.760;2023-05-10T15:46:49;3.80;;;3.60;;
5752;SDS011;2901;42.140;24.760;2023-05-10T15:49:14;4.40;;;4.10;;
5752;SDS011;2901;42.140;24.760;2023-05-10T15:51:39;5.07;;;3.78;;